sensor_id;sensor_type;location;lat;lon;timestamp;pressure;altitude;pressure_sealevel;temperature;humidity
21276;BME280;36472;52.170;20.884;2023-05-20T00:00:25;101567.28;;;15.71;88.87
21276;BME280;36472;52.170;20.884;2023-05-20T00:03:15;101566.41;;;15.71;88.58
21276;BME280;36472;52.170;20.884;2023-05-20T00:05:45;101568.75;;;15.63;88.54
21276;BME280;36472;52.170;20.884;2023-05-20T00:08:14;101565.34;;;15.61;88.56
21276;BME280;36472;52.170;20.884;2023-05-20T00:10:43;101565.44;;;15.59;87.93
21276;BME280;36472;52.170;20.884;2023-05-20T00:13:12;101564.50;;;15.60;87.53
21276;BME280;36472;52.170;20.884;2023-05-20T00:15:41;101566.22;;;15.61;86.95
21276;BME280;36472;52.170;20.884;2023-05-20T00:18:10;101559.00;;;15.63;86.50
21276;BME280;36472;52.170;20.884;2023-05-20T00:20:40;101562.69;;;15.61;85.63
21276;BME280;36472;52.170;20.884;2023-05-20T00:23:09;101559.22;;;15.60;85.24
21276;BME280;36472;52.170;20.884;2023-05-20T00:25:38;101558.38;;;15.60;85.49
21276;BME280;36472;52.170;20.884;2023-05-20T00:28:07;101562.59;;;15.62;84.80
21276;BME280;36472;52.170;20.884;2023-05-20T00:30:38;101561.75;;;15.62;83.91
21276;BME280;36472;52.170;20.884;2023-05-20T00:33:08;101554.84;;;15.59;83.63
21276;BME280;36472;52.170;20.884;2023-05-20T00:35:38;101551.56;;;15.56;83.57
21276;BME280;36472;52.170;20.884;2023-05-20T00:38:08;101561.53;;;15.52;83.81
21276;BME280;36472;52.170;20.884;2023-05-20T00:40:37;101551.22;;;15.47;83.76
21276;BME280;36472;52.170;20.884;2023-05-20T00:43:06;101555.78;;;15.45;83.81
21276;BME280;36472;52.170;20.884;2023-05-20T00:45:36;101553.88;;;15.47;82.98
21276;BME280;36472;52.170;20.884;2023-05-20T00:48:06;101558.34;;;15.47;82.96
21276;BME280;36472;52.170;20.884;2023-05-20T00:50:36;101558.34;;;15.47;82.69
21276;BME280;36472;52.170;20.884;2023-05-20T00:53:05;101546.28;;;15.43;83.09
21276;BME280;36472;52.170;20.884;2023-05-20T00:55:36;101552.59;;;15.40;83.05
21276;BME280;36472;52.170;20.884;2023-05-20T00:58:06;101550.81;;;15.41;83.18
21276;BME280;36472;52.170;20.884;2023-05-20T01:00:35;101563.19;;;15.40;83.01
21276;BME280;36472;52.170;20.884;2023-05-20T01:03:04;101555.16;;;15.42;83.37
21276;BME280;36472;52.170;20.884;2023-05-20T01:05:33;101553.47;;;15.41;83.13
21276;BME280;36472;52.170;20.884;2023-05-20T01:08:05;101552.59;;;15.40;82.94
21276;BME280;36472;52.170;20.884;2023-05-20T01:10:39;101560.34;;;15.43;82.94
21276;BME280;36472;52.170;20.884;2023-05-20T01:13:15;101554.22;;;15.43;82.78
21276;BME280;36472;52.170;20.884;2023-05-20T01:15:47;101558.53;;;15.44;83.29
21276;BME280;36472;52.170;20.884;2023-05-20T01:18:17;101556.00;;;15.42;83.39
21276;BME280;36472;52.170;20.884;2023-05-20T01:20:50;101555.25;;;15.40;83.91
21276;BME280;36472;52.170;20.884;2023-05-20T01:23:23;101558.78;;;15.41;84.38
21276;BME280;36472;52.170;20.884;2023-05-20T01:25:58;101562.56;;;15.37;84.32
21276;BME280;36472;52.170;20.884;2023-05-20T01:28:27;101568.06;;;15.33;83.58
21276;BME280;36472;52.170;20.884;2023-05-20T01:31:00;101560.22;;;15.32;83.34
21276;BME280;36472;52.170;20.884;2023-05-20T01:33:35;101561.28;;;15.29;83.35
21276;BME280;36472;52.170;20.884;2023-05-20T01:36:06;101556.81;;;15.30;83.49
21276;BME280;36472;52.170;20.884;2023-05-20T01:38:40;101563.19;;;15.27;83.37
21276;BME280;36472;52.170;20.884;2023-05-20T01:41:11;101560.84;;;15.23;84.15
21276;BME280;36472;52.170;20.884;2023-05-20T01:43:40;101557.34;;;15.22;85.04
21276;BME280;36472;52.170;20.884;2023-05-20T01:46:10;101558.09;;;15.24;84.07
21276;BME280;36472;52.170;20.884;2023-05-20T01:48:39;101556.38;;;15.23;84.14
21276;BME280;36472;52.170;20.884;2023-05-20T01:51:08;101549.41;;;15.22;84.16
21276;BME280;36472;52.170;20.884;2023-05-20T01:53:38;101549.41;;;15.22;84.86
21276;BME280;36472;52.170;20.884;2023-05-20T01:56:08;101545.16;;;15.20;84.95
21276;BME280;36472;52.170;20.884;2023-05-20T01:58:37;101542.50;;;15.20;84.90
21276;BME280;36472;52.170;20.884;2023-05-20T02:01:06;101540.94;;;15.17;85.22
21276;BME280;36472;52.170;20.884;2023-05-20T02:03:35;101536.56;;;15.16;85.07
21276;BME280;36472;52.170;20.884;2023-05-20T02:06:04;101530.53;;;15.14;85.20
21276;BME280;36472;52.170;20.884;2023-05-20T02:08:33;101533.19;;;15.14;85.18
21276;BME280;36472;52.170;20.884;2023-05-20T02:11:04;101537.53;;;15.15;85.44
21276;BME280;36472;52.170;20.884;2023-05-20T02:13:33;101536.84;;;15.11;85.37
21276;BME280;36472;52.170;20.884;2023-05-20T02:16:02;101535.28;;;15.09;85.57
21276;BME280;36472;52.170;20.884;2023-05-20T02:18:31;101534.75;;;15.04;85.60
21276;BME280;36472;52.170;20.884;2023-05-20T02:21:02;101538.53;;;15.00;85.84
21276;BME280;36472;52.170;20.884;2023-05-20T02:23:31;101538.53;;;15.00;86.53
21276;BME280;36472;52.170;20.884;2023-05-20T02:26:00;101545.53;;;15.01;86.85
21276;BME280;36472;52.170;20.884;2023-05-20T02:28:31;101543.81;;;15.00;86.75
21276;BME280;36472;52.170;20.884;2023-05-20T02:31:00;101553.56;;;14.99;86.40
21276;BME280;36472;52.170;20.884;2023-05-20T02:33:31;101551.56;;;15.03;87.02
21276;BME280;36472;52.170;20.884;2023-05-20T02:36:00;101550.53;;;15.05;86.66
21276;BME280;36472;52.170;20.884;2023-05-20T02:38:29;101553.06;;;15.07;86.47
21276;BME280;36472;52.170;20.884;2023-05-20T02:40:58;101558.56;;;15.04;86.05
21276;BME280;36472;52.170;20.884;2023-05-20T02:43:27;101553.38;;;15.02;86.32
21276;BME280;36472;52.170;20.884;2023-05-20T02:45:58;101558.03;;;14.99;86.51
21276;BME280;36472;52.170;20.884;2023-05-20T02:48:27;101555.28;;;15.00;87.03
21276;BME280;36472;52.170;20.884;2023-05-20T02:50:58;101550.63;;;15.04;87.22
21276;BME280;36472;52.170;20.884;2023-05-20T02:53:27;101550.63;;;15.04;86.59
21276;BME280;36472;52.170;20.884;2023-05-20T02:55:56;101552.31;;;15.05;86.31
21276;BME280;36472;52.170;20.884;2023-05-20T02:58:26;101548.72;;;15.06;86.57
21276;BME280;36472;52.170;20.884;2023-05-20T03:00:57;101550.44;;;15.07;86.27
21276;BME280;36472;52.170;20.884;2023-05-20T03:03:26;101550.19;;;15.10;86.08
21276;BME280;36472;52.170;20.884;2023-05-20T03:05:55;101553.81;;;15.09;86.28
21276;BME280;36472;52.170;20.884;2023-05-20T03:08:25;101549.47;;;15.08;85.44
21276;BME280;36472;52.170;20.884;2023-05-20T03:10:54;101546.16;;;15.04;85.04
21276;BME280;36472;52.170;20.884;2023-05-20T03:13:23;101549.53;;;14.93;85.62
21276;BME280;36472;52.170;20.884;2023-05-20T03:15:52;101544.22;;;14.93;85.88
21276;BME280;36472;52.170;20.884;2023-05-20T03:18:24;101547.72;;;14.94;86.25
21276;BME280;36472;52.170;20.884;2023-05-20T03:20:53;101549.88;;;15.02;86.22
21276;BME280;36472;52.170;20.884;2023-05-20T03:23:23;101563.22;;;15.00;87.00
21276;BME280;36472;52.170;20.884;2023-05-20T03:25:52;101558.47;;;15.05;86.73
21276;BME280;36472;52.170;20.884;2023-05-20T03:28:21;101560.16;;;15.06;85.85
21276;BME280;36472;52.170;20.884;2023-05-20T03:30:50;101553.81;;;15.09;85.74
21276;BME280;36472;52.170;20.884;2023-05-20T03:33:19;101560.03;;;15.08;86.23
21276;BME280;36472;52.170;20.884;2023-05-20T03:35:54;101555.19;;;15.14;86.24
21276;BME280;36472;52.170;20.884;2023-05-20T03:38:23;101548.00;;;15.17;86.23
21276;BME280;36472;52.170;20.884;2023-05-20T03:40:52;101544.31;;;15.19;86.19
21276;BME280;36472;52.170;20.884;2023-05-20T03:43:22;101553.63;;;15.25;86.21
21276;BME280;36472;52.170;20.884;2023-05-20T03:45:51;101555.25;;;15.27;86.09
21276;BME280;36472;52.170;20.884;2023-05-20T03:48:21;101549.63;;;15.32;85.79
21276;BME280;36472;52.170;20.884;2023-05-20T03:50:50;101555.34;;;15.39;85.48
21276;BME280;36472;52.170;20.884;2023-05-20T03:53:21;101549.97;;;15.40;84.60
21276;BME280;36472;52.170;20.884;2023-05-20T03:55:50;101555.78;;;15.45;83.74
21276;BME280;36472;52.170;20.884;2023-05-20T03:58:19;101558.34;;;15.47;83.70
21276;BME280;36472;52.170;20.884;2023-05-20T04:00:49;101553.78;;;15.49;83.30
21276;BME280;36472;52.170;20.884;2023-05-20T04:03:18;101558.97;;;15.50;83.08
21276;BME280;36472;52.170;20.884;2023-05-20T04:05:49;101561.97;;;15.59;82.60
21276;BME280;36472;52.170;20.884;2023-05-20T04:08:22;101560.06;;;15.61;81.90
21276;BME280;36472;52.170;20.884;2023-05-20T04:10:55;101560.59;;;15.66;81.78
21276;BME280;36472;52.170;20.884;2023-05-20T04:13:24;101562.19;;;15.68;81.34
21276;BME280;36472;52.170;20.884;2023-05-20T04:15:53;101562.09;;;15.70;81.60
21276;BME280;36472;52.170;20.884;2023-05-20T04:18:22;101552.91;;;15.76;81.77
21276;BME280;36472;52.170;20.884;2023-05-20T04:20:53;101555.13;;;15.82;80.84
21276;BME280;36472;52.170;20.884;2023-05-20T04:23:25;101564.34;;;15.89;82.11
21276;BME280;36472;52.170;20.884;2023-05-20T04:25:54;101565.50;;;15.98;81.99
21276;BME280;36472;52.170;20.884;2023-05-20T04:28:30;101566.97;;;16.02;81.25
21276;BME280;36472;52.170;20.884;2023-05-20T04:31:00;101575.47;;;16.07;80.85
21276;BME280;36472;52.170;20.884;2023-05-20T04:33:34;101568.91;;;16.13;80.33
21276;BME280;36472;52.170;20.884;2023-05-20T04:36:08;101573.03;;;16.17;79.13
21276;BME280;36472;52.170;20.884;2023-05-20T04:38:41;101571.53;;;16.25;78.51
21276;BME280;36472;52.170;20.884;2023-05-20T04:41:11;101577.47;;;16.29;77.82
21276;BME280;36472;52.170;20.884;2023-05-20T04:43:40;101568.56;;;16.30;77.96
21276;BME280;36472;52.170;20.884;2023-05-20T04:46:10;101560.38;;;16.33;77.62
21276;BME280;36472;52.170;20.884;2023-05-20T04:48:39;101560.66;;;16.41;77.53
21276;BME280;36472;52.170;20.884;2023-05-20T04:51:08;101560.91;;;16.38;77.10
21276;BME280;36472;52.170;20.884;2023-05-20T04:53:37;101554.41;;;16.42;77.49
21276;BME280;36472;52.170;20.884;2023-05-20T04:56:08;101560.13;;;16.49;76.58
21276;BME280;36472;52.170;20.884;2023-05-20T04:58:37;101558.09;;;16.53;75.99
21276;BME280;36472;52.170;20.884;2023-05-20T05:01:06;101559.13;;;16.63;76.11
21276;BME280;36472;52.170;20.884;2023-05-20T05:03:35;101556.03;;;16.69;75.73
21276;BME280;36472;52.170;20.884;2023-05-20T05:06:04;101556.34;;;16.77;75.17
21276;BME280;36472;52.170;20.884;2023-05-20T05:08:33;101554.28;;;16.81;76.32
21276;BME280;36472;52.170;20.884;2023-05-20T05:11:04;101565.34;;;16.88;76.17
21276;BME280;36472;52.170;20.884;2023-05-20T05:13:35;101560.53;;;16.93;75.90
21276;BME280;36472;52.170;20.884;2023-05-20T05:16:05;101561.72;;;16.89;74.45
21276;BME280;36472;52.170;20.884;2023-05-20T05:18:34;101558.63;;;16.95;75.08
21276;BME280;36472;52.170;20.884;2023-05-20T05:21:06;101564.31;;;17.01;75.13
21276;BME280;36472;52.170;20.884;2023-05-20T05:23:36;101566.41;;;17.09;73.11
21276;BME280;36472;52.170;20.884;2023-05-20T05:26:05;101555.09;;;17.18;72.44
21276;BME280;36472;52.170;20.884;2023-05-20T05:28:35;101557.88;;;17.17;72.26
21276;BME280;36472;52.170;20.884;2023-05-20T05:31:04;101561.31;;;17.30;71.73
21276;BME280;36472;52.170;20.884;2023-05-20T05:33:34;101559.09;;;17.24;71.23
21276;BME280;36472;52.170;20.884;2023-05-20T05:36:03;101565.88;;;17.28;71.68
21276;BME280;36472;52.170;20.884;2023-05-20T05:38:33;101559.59;;;17.29;72.60
21276;BME280;36472;52.170;20.884;2023-05-20T05:41:03;101562.88;;;17.33;71.66
21276;BME280;36472;52.170;20.884;2023-05-20T05:43:35;101566.19;;;17.48;71.27
21276;BME280;36472;52.170;20.884;2023-05-20T05:46:05;101568.94;;;17.46;71.61
21276;BME280;36472;52.170;20.884;2023-05-20T05:48:35;101573.78;;;17.52;71.76
21276;BME280;36472;52.170;20.884;2023-05-20T05:51:04;101575.50;;;17.53;71.75
21276;BME280;36472;52.170;20.884;2023-05-20T05:53:34;101573.09;;;17.62;72.24
21276;BME280;36472;52.170;20.884;2023-05-20T05:56:03;101569.50;;;17.74;73.08
21276;BME280;36472;52.170;20.884;2023-05-20T05:58:34;101574.84;;;17.85;71.53
21276;BME280;36472;52.170;20.884;2023-05-20T06:01:05;101567.50;;;17.89;70.21
21276;BME280;36472;52.170;20.884;2023-05-20T06:03:35;101571.97;;;18.00;69.36
21276;BME280;36472;52.170;20.884;2023-05-20T06:06:03;101571.97;;;18.00;69.22
21276;BME280;36472;52.170;20.884;2023-05-20T06:08:34;101564.00;;;18.11;70.02
21276;BME280;36472;52.170;20.884;2023-05-20T06:11:03;101568.47;;;18.22;68.52
21276;BME280;36472;52.170;20.884;2023-05-20T06:13:32;101570.75;;;18.38;67.25
21276;BME280;36472;52.170;20.884;2023-05-20T06:16:04;101563.34;;;18.64;68.93
21276;BME280;36472;52.170;20.884;2023-05-20T06:18:33;101572.88;;;18.78;67.55
21276;BME280;36472;52.170;20.884;2023-05-20T06:21:04;101573.00;;;18.87;67.08
21276;BME280;36472;52.170;20.884;2023-05-20T06:23:33;101572.38;;;18.95;67.52
21276;BME280;36472;52.170;20.884;2023-05-20T06:26:05;101568.69;;;19.08;68.83
21276;BME280;36472;52.170;20.884;2023-05-20T06:28:34;101564.56;;;19.15;66.59
21276;BME280;36472;52.170;20.884;2023-05-20T06:31:04;101562.03;;;19.34;66.26
21276;BME280;36472;52.170;20.884;2023-05-20T06:33:34;101565.25;;;19.59;65.07
21276;BME280;36472;52.170;20.884;2023-05-20T06:36:07;101570.91;;;19.77;63.79
21276;BME280;36472;52.170;20.884;2023-05-20T06:38:37;101564.88;;;19.85;61.82
21276;BME280;36472;52.170;20.884;2023-05-20T06:41:06;101561.38;;;19.84;64.14
21276;BME280;36472;52.170;20.884;2023-05-20T06:43:35;101564.56;;;19.99;63.69
21276;BME280;36472;52.170;20.884;2023-05-20T06:46:10;101561.78;;;20.10;63.27
21276;BME280;36472;52.170;20.884;2023-05-20T06:48:46;101573.50;;;20.19;62.42
21276;BME280;36472;52.170;20.884;2023-05-20T06:51:16;101561.25;;;20.16;60.83
21276;BME280;36472;52.170;20.884;2023-05-20T06:53:48;101553.84;;;20.30;62.28
21276;BME280;36472;52.170;20.884;2023-05-20T06:56:16;101555.31;;;20.53;63.35
21276;BME280;36472;52.170;20.884;2023-05-20T06:58:45;101545.13;;;20.78;61.89
21276;BME280;36472;52.170;20.884;2023-05-20T07:01:16;101548.09;;;21.04;59.12
21276;BME280;36472;52.170;20.884;2023-05-20T07:03:47;101555.53;;;21.10;59.57
21276;BME280;36472;52.170;20.884;2023-05-20T07:06:16;101549.19;;;21.21;59.04
21276;BME280;36472;52.170;20.884;2023-05-20T07:08:45;101547.78;;;21.37;57.79
21276;BME280;36472;52.170;20.884;2023-05-20T07:11:15;101542.31;;;21.48;58.36
21276;BME280;36472;52.170;20.884;2023-05-20T07:13:44;101545.50;;;21.71;60.17
21276;BME280;36472;52.170;20.884;2023-05-20T07:16:15;101545.84;;;21.86;58.16
21276;BME280;36472;52.170;20.884;2023-05-20T07:18:49;101546.25;;;21.91;56.44
21276;BME280;36472;52.170;20.884;2023-05-20T07:21:18;101544.53;;;22.00;56.86
21276;BME280;36472;52.170;20.884;2023-05-20T07:24:06;101551.81;;;22.17;58.31
21276;BME280;36472;52.170;20.884;2023-05-20T07:26:36;101550.50;;;22.31;56.42
21276;BME280;36472;52.170;20.884;2023-05-20T07:29:06;101547.59;;;22.42;57.60
21276;BME280;36472;52.170;20.884;2023-05-20T07:31:39;101549.50;;;22.60;54.91
21276;BME280;36472;52.170;20.884;2023-05-20T07:34:08;101548.66;;;22.77;54.44
21276;BME280;36472;52.170;20.884;2023-05-20T07:36:37;101548.75;;;22.86;55.16
21276;BME280;36472;52.170;20.884;2023-05-20T07:39:06;101539.16;;;22.83;54.40
21276;BME280;36472;52.170;20.884;2023-05-20T07:41:41;101537.84;;;22.69;54.41
21276;BME280;36472;52.170;20.884;2023-05-20T07:44:12;101538.16;;;22.66;56.09
21276;BME280;36472;52.170;20.884;2023-05-20T07:46:47;101536.00;;;22.70;54.58
21276;BME280;36472;52.170;20.884;2023-05-20T07:49:16;101536.34;;;22.67;55.28
21276;BME280;36472;52.170;20.884;2023-05-20T07:51:45;101525.38;;;22.78;53.61
21276;BME280;36472;52.170;20.884;2023-05-20T07:54:16;101530.28;;;22.83;55.36
21276;BME280;36472;52.170;20.884;2023-05-20T07:56:49;101525.91;;;23.00;54.92
21276;BME280;36472;52.170;20.884;2023-05-20T07:59:19;101525.47;;;23.04;54.19
21276;BME280;36472;52.170;20.884;2023-05-20T08:01:50;101527.38;;;23.12;55.37
21276;BME280;36472;52.170;20.884;2023-05-20T08:04:21;101528.03;;;23.32;55.84
21276;BME280;36472;52.170;20.884;2023-05-20T08:06:51;101533.19;;;23.51;54.36
21276;BME280;36472;52.170;20.884;2023-05-20T08:09:38;101532.91;;;23.37;53.06
21276;BME280;36472;52.170;20.884;2023-05-20T08:12:07;101537.75;;;23.33;52.83
21276;BME280;36472;52.170;20.884;2023-05-20T08:14:37;101533.41;;;23.32;54.21
21276;BME280;36472;52.170;20.884;2023-05-20T08:17:07;101530.97;;;23.47;54.34
21276;BME280;36472;52.170;20.884;2023-05-20T08:19:37;101532.06;;;23.54;53.27
21276;BME280;36472;52.170;20.884;2023-05-20T08:22:06;101524.88;;;23.63;53.16
21276;BME280;36472;52.170;20.884;2023-05-20T08:24:35;101522.38;;;23.61;52.10
21276;BME280;36472;52.170;20.884;2023-05-20T08:27:05;101528.25;;;23.65;51.50
21276;BME280;36472;52.170;20.884;2023-05-20T08:29:34;101521.78;;;23.49;52.22
21276;BME280;36472;52.170;20.884;2023-05-20T08:32:04;101523.84;;;23.56;52.81
21276;BME280;36472;52.170;20.884;2023-05-20T08:34:36;101527.94;;;23.68;54.01
21276;BME280;36472;52.170;20.884;2023-05-20T08:37:06;101523.97;;;23.80;52.79
21276;BME280;36472;52.170;20.884;2023-05-20T08:39:35;101531.09;;;23.89;52.67
21276;BME280;36472;52.170;20.884;2023-05-20T08:42:06;101526.13;;;24.03;53.64
21276;BME280;36472;52.170;20.884;2023-05-20T08:44:36;101526.19;;;24.19;52.14
21276;BME280;36472;52.170;20.884;2023-05-20T08:47:07;101523.69;;;24.26;52.33
21276;BME280;36472;52.170;20.884;2023-05-20T08:49:38;101517.34;;;24.35;49.76
21276;BME280;36472;52.170;20.884;2023-05-20T08:52:10;101517.53;;;24.42;49.55
21276;BME280;36472;52.170;20.884;2023-05-20T08:54:45;101519.25;;;24.51;50.43
21276;BME280;36472;52.170;20.884;2023-05-20T08:57:15;101517.22;;;24.53;48.99
21276;BME280;36472;52.170;20.884;2023-05-20T08:59:47;101514.88;;;24.50;50.82
21276;BME280;36472;52.170;20.884;2023-05-20T09:02:17;101514.19;;;24.48;49.75
21276;BME280;36472;52.170;20.884;2023-05-20T09:04:48;101509.56;;;24.67;49.54
21276;BME280;36472;52.170;20.884;2023-05-20T09:07:26;101513.56;;;24.62;50.14
21276;BME280;36472;52.170;20.884;2023-05-20T09:09:56;101503.16;;;24.68;50.78
21276;BME280;36472;52.170;20.884;2023-05-20T09:12:26;101501.16;;;24.78;49.49
21276;BME280;36472;52.170;20.884;2023-05-20T09:14:55;101499.13;;;24.80;51.18
21276;BME280;36472;52.170;20.884;2023-05-20T09:17:24;101495.13;;;24.92;50.05
21276;BME280;36472;52.170;20.884;2023-05-20T09:19:55;101493.59;;;25.06;48.48
21276;BME280;36472;52.170;20.884;2023-05-20T09:22:26;101492.75;;;25.22;47.90
21276;BME280;36472;52.170;20.884;2023-05-20T09:24:55;101501.16;;;25.27;49.38
21276;BME280;36472;52.170;20.884;2023-05-20T09:27:25;101491.22;;;25.36;49.81
21276;BME280;36472;52.170;20.884;2023-05-20T09:29:54;101491.56;;;25.41;49.22
21276;BME280;36472;52.170;20.884;2023-05-20T09:32:23;101493.91;;;25.44;48.01
21276;BME280;36472;52.170;20.884;2023-05-20T09:34:57;101488.53;;;25.44;48.53
21276;BME280;36472;52.170;20.884;2023-05-20T09:37:29;101488.69;;;25.51;48.81
21276;BME280;36472;52.170;20.884;2023-05-20T09:40:02;101487.47;;;25.62;48.08
21276;BME280;36472;52.170;20.884;2023-05-20T09:42:41;101482.91;;;25.70;48.61
21276;BME280;36472;52.170;20.884;2023-05-20T09:45:12;101482.25;;;25.60;47.91
21276;BME280;36472;52.170;20.884;2023-05-20T09:47:42;101485.72;;;25.77;48.04
21276;BME280;36472;52.170;20.884;2023-05-20T09:50:14;101478.75;;;26.07;47.42
21276;BME280;36472;52.170;20.884;2023-05-20T09:52:43;101471.31;;;26.41;46.22
21276;BME280;36472;52.170;20.884;2023-05-20T09:55:14;101467.94;;;26.70;45.34
21276;BME280;36472;52.170;20.884;2023-05-20T09:57:44;101475.44;;;26.98;46.66
21276;BME280;36472;52.170;20.884;2023-05-20T10:00:15;101469.41;;;26.96;45.37
21276;BME280;36472;52.170;20.884;2023-05-20T10:02:51;101475.91;;;27.01;46.64
21276;BME280;36472;52.170;20.884;2023-05-20T10:05:26;101470.03;;;26.98;46.20
21276;BME280;36472;52.170;20.884;2023-05-20T10:08:36;101472.44;;;26.93;45.82
21276;BME280;36472;52.170;20.884;2023-05-20T10:11:20;101466.88;;;26.94;44.07
21276;BME280;36472;52.170;20.884;2023-05-20T10:14:22;101477.16;;;26.76;44.84
21276;BME280;36472;52.170;20.884;2023-05-20T10:17:05;101466.59;;;26.66;45.07
21276;BME280;36472;52.170;20.884;2023-05-20T10:19:36;101467.63;;;26.65;46.33
21276;BME280;36472;52.170;20.884;2023-05-20T10:22:09;101457.25;;;27.15;45.32
21276;BME280;36472;52.170;20.884;2023-05-20T10:24:40;101465.34;;;27.89;43.65
21276;BME280;36472;52.170;20.884;2023-05-20T10:27:13;101464.56;;;28.47;43.52
21276;BME280;36472;52.170;20.884;2023-05-20T10:29:44;101463.56;;;28.69;40.63
21276;BME280;36472;52.170;20.884;2023-05-20T10:32:26;101449.84;;;28.71;41.71
21276;BME280;36472;52.170;20.884;2023-05-20T16:01:15;101239.44;;;25.10;46.47
21276;BME280;36472;52.170;20.884;2023-05-20T16:03:44;101244.13;;;25.16;46.83
21276;BME280;36472;52.170;20.884;2023-05-20T16:06:13;101242.28;;;25.17;46.39
21276;BME280;36472;52.170;20.884;2023-05-20T16:08:43;101237.41;;;25.12;46.32
21276;BME280;36472;52.170;20.884;2023-05-20T16:11:12;101232.16;;;25.19;45.83
21276;BME280;36472;52.170;20.884;2023-05-20T16:13:41;101236.84;;;25.25;45.71
21276;BME280;36472;52.170;20.884;2023-05-20T16:16:09;101242.56;;;25.30;45.65
21276;BME280;36472;52.170;20.884;2023-05-20T16:18:41;101230.56;;;25.41;45.84
21276;BME280;36472;52.170;20.884;2023-05-20T16:21:10;101243.66;;;25.44;46.19
21276;BME280;36472;52.170;20.884;2023-05-20T16:23:39;101230.91;;;25.38;45.08
21276;BME280;36472;52.170;20.884;2023-05-20T16:26:08;101234.28;;;25.40;45.03
21276;BME280;36472;52.170;20.884;2023-05-20T16:28:37;101234.16;;;25.33;44.97
21276;BME280;36472;52.170;20.884;2023-05-20T16:31:06;101236.16;;;25.31;45.30
21276;BME280;36472;52.170;20.884;2023-05-20T16:33:35;101239.53;;;25.33;45.36
21276;BME280;36472;52.170;20.884;2023-05-20T16:36:06;101240.41;;;25.17;45.97
21276;BME280;36472;52.170;20.884;2023-05-20T16:38:35;101244.81;;;25.10;46.04
21276;BME280;36472;52.170;20.884;2023-05-20T16:41:04;101243.38;;;24.99;46.47
21276;BME280;36472;52.170;20.884;2023-05-20T16:43:33;101245.75;;;24.94;46.98
21276;BME280;36472;52.170;20.884;2023-05-20T16:46:02;101245.28;;;24.82;47.51
21276;BME280;36472;52.170;20.884;2023-05-20T16:48:32;101236.72;;;24.79;47.45
21276;BME280;36472;52.170;20.884;2023-05-20T16:51:01;101244.47;;;24.74;46.50
21276;BME280;36472;52.170;20.884;2023-05-20T16:53:31;101244.81;;;24.71;47.17
21276;BME280;36472;52.170;20.884;2023-05-20T16:56:00;101247.16;;;24.74;47.54
21276;BME280;36472;52.170;20.884;2023-05-20T16:58:29;101251.91;;;24.63;47.48
21276;BME280;36472;52.170;20.884;2023-05-20T17:00:58;101250.53;;;24.59;47.12
21276;BME280;36472;52.170;20.884;2023-05-20T17:03:27;101261.97;;;24.53;47.28
21276;BME280;36472;52.170;20.884;2023-05-20T17:05:56;101255.22;;;24.49;47.12
21276;BME280;36472;52.170;20.884;2023-05-20T17:08:25;101267.34;;;24.45;47.22
21276;BME280;36472;52.170;20.884;2023-05-20T17:10:55;101267.34;;;24.37;47.39
21276;BME280;36472;52.170;20.884;2023-05-20T17:13:26;101259.78;;;24.32;48.41
21276;BME280;36472;52.170;20.884;2023-05-20T17:15:55;101260.31;;;24.27;48.78
21276;BME280;36472;52.170;20.884;2023-05-20T17:18:24;101266.69;;;24.18;49.70
21276;BME280;36472;52.170;20.884;2023-05-20T17:20:55;101257.97;;;24.08;49.07
21276;BME280;36472;52.170;20.884;2023-05-20T17:23:24;101259.66;;;24.01;48.36
21276;BME280;36472;52.170;20.884;2023-05-20T17:25:54;101257.63;;;23.95;48.20
21276;BME280;36472;52.170;20.884;2023-05-20T17:28:23;101264.34;;;23.90;48.07
21276;BME280;36472;52.170;20.884;2023-05-20T17:30:52;101260.16;;;23.88;47.82
21276;BME280;36472;52.170;20.884;2023-05-20T17:33:22;101265.19;;;23.83;48.12
21276;BME280;36472;52.170;20.884;2023-05-20T17:35:51;101262.13;;;23.78;48.08
21276;BME280;36472;52.170;20.884;2023-05-20T17:38:20;101267.50;;;23.69;47.95
21276;BME280;36472;52.170;20.884;2023-05-20T17:40:53;101269.50;;;23.67;49.21
21276;BME280;36472;52.170;20.884;2023-05-20T17:43:23;101264.47;;;23.64;49.20
21276;BME280;36472;52.170;20.884;2023-05-20T17:45:52;101273.31;;;23.57;49.41
21276;BME280;36472;52.170;20.884;2023-05-20T17:48:21;101278.50;;;23.50;49.16
21276;BME280;36472;52.170;20.884;2023-05-20T17:50:50;101276.13;;;23.39;48.44
21276;BME280;36472;52.170;20.884;2023-05-20T17:53:19;101279.81;;;23.38;48.48
21276;BME280;36472;52.170;20.884;2023-05-20T17:55:48;101272.59;;;23.30;49.05
21276;BME280;36472;52.170;20.884;2023-05-20T17:58:18;101279.78;;;23.29;48.80
21276;BME280;36472;52.170;20.884;2023-05-20T18:00:50;101277.59;;;23.25;48.60
21276;BME280;36472;52.170;20.884;2023-05-20T18:03:19;101269.38;;;23.18;48.26
21276;BME280;36472;52.170;20.884;2023-05-20T18:05:49;101274.28;;;23.05;48.57
21276;BME280;36472;52.170;20.884;2023-05-20T18:08:21;101281.50;;;23.04;49.57
21276;BME280;36472;52.170;20.884;2023-05-20T18:10:51;101278.78;;;22.96;49.83
21276;BME280;36472;52.170;20.884;2023-05-20T18:13:20;101282.09;;;22.90;49.50
21276;BME280;36472;52.170;20.884;2023-05-20T18:15:51;101282.03;;;22.82;49.13
21276;BME280;36472;52.170;20.884;2023-05-20T18:18:21;101283.38;;;22.77;49.56
21276;BME280;36472;52.170;20.884;2023-05-20T18:20:50;101286.50;;;22.73;49.01
21276;BME280;36472;52.170;20.884;2023-05-20T18:23:19;101291.66;;;22.66;49.53